createdAt,value
2016-07-14T00:00:04.126Z,17
2016-07-14T00:00:14.122Z,17
2016-07-14T00:00:24.118Z,17
2016-07-14T00:00:34.113Z,17
2016-07-14T00:00:44.105Z,17
2016-07-14T00:00:54.104Z,17
2016-07-14T00:01:04.099Z,17
2016-07-14T00:01:14.095Z,17
2016-07-14T00:01:24.091Z,17
2016-07-14T00:01:34.084Z,16.9
2016-07-14T00:01:44.075Z,16.9
2016-07-14T00:01:54.073Z,16.9
2016-07-14T00:02:04.067Z,17
2016-07-14T00:02:14.064Z,17
2016-07-14T00:02:24.060Z,17
2016-07-14T00:02:34.056Z,17
2016-07-14T00:02:44.052Z,17
2016-07-14T00:02:54.053Z,17
2016-07-14T00:03:04.042Z,17
2016-07-14T00:03:14.036Z,17
2016-07-14T00:03:24.028Z,16.9
2016-07-14T00:03:34.026Z,17
2016-07-14T00:03:44.020Z,17
2016-07-14T00:03:54.017Z,17
2016-07-14T00:04:04.012Z,17
2016-07-14T00:04:14.010Z,17
2016-07-14T00:04:24.003Z,17
2016-07-14T00:04:33.998Z,17.1
2016-07-14T00:04:44.001Z,17.1
2016-07-14T00:04:53.990Z,17.1
2016-07-14T00:05:03.984Z,17.1
2016-07-14T00:05:13.977Z,17
2016-07-14T00:05:23.971Z,17.1
2016-07-14T00:05:33.969Z,17.1
2016-07-14T00:05:43.966Z,17
2016-07-14T00:05:53.960Z,17
2016-07-14T00:06:03.953Z,17
2016-07-14T00:06:13.950Z,17
2016-07-14T00:06:23.946Z,17
2016-07-14T00:06:34.668Z,17
2016-07-14T00:06:43.936Z,17
2016-07-14T00:06:53.930Z,17
2016-07-14T00:07:03.925Z,16.9
2016-07-14T00:07:13.921Z,16.9
2016-07-14T00:07:23.917Z,16.9
2016-07-14T00:07:33.911Z,17
2016-07-14T00:07:43.908Z,17
2016-07-14T00:07:53.903Z,17
2016-07-14T00:08:03.900Z,17
2016-07-14T00:08:13.893Z,17
2016-07-14T00:08:23.888Z,17
2016-07-14T00:08:33.883Z,17
2016-07-14T00:08:43.877Z,17
2016-07-14T00:08:53.872Z,17
2016-07-14T00:09:03.871Z,17
2016-07-14T00:09:13.864Z,17
2016-07-14T00:09:23.859Z,17
2016-07-14T00:09:33.853Z,17
2016-07-14T00:09:43.851Z,17
2016-07-14T00:09:53.845Z,17
2016-07-14T00:10:04.571Z,17.1
2016-07-14T00:10:13.834Z,17
2016-07-14T00:10:23.831Z,17
2016-07-14T00:10:33.824Z,17
2016-07-14T00:10:43.822Z,17
2016-07-14T00:10:53.816Z,17
2016-07-14T00:11:03.812Z,17
2016-07-14T00:11:13.804Z,17
2016-07-14T00:11:23.802Z,17
2016-07-14T00:11:33.797Z,17
2016-07-14T00:11:43.793Z,17
2016-07-14T00:11:53.786Z,17
2016-07-14T00:12:03.781Z,17
2016-07-14T00:12:13.777Z,17.1
2016-07-14T00:12:23.772Z,17
2016-07-14T00:12:33.766Z,17
2016-07-14T00:12:43.763Z,17
2016-07-14T00:12:53.757Z,17
2016-07-14T00:13:03.752Z,17
2016-07-14T00:13:13.749Z,17
2016-07-14T00:13:23.743Z,17
2016-07-14T00:13:33.739Z,16.9
2016-07-14T00:13:43.734Z,17
2016-07-14T00:13:53.729Z,17
2016-07-14T00:14:03.723Z,17
2016-07-14T00:14:13.724Z,17
2016-07-14T00:14:23.715Z,17
2016-07-14T00:14:33.710Z,17
2016-07-14T00:14:43.706Z,17
2016-07-14T00:14:53.702Z,17
2016-07-14T00:15:03.696Z,16.9
2016-07-14T00:15:13.689Z,16.9
2016-07-14T00:15:23.687Z,16.9
2016-07-14T00:15:33.681Z,16.9
2016-07-14T00:15:43.678Z,16.9
2016-07-14T00:15:53.677Z,16.9
2016-07-14T00:16:03.667Z,16.9
2016-07-14T00:16:13.663Z,16.9
2016-07-14T00:16:23.656Z,16.9
2016-07-14T00:16:33.655Z,16.9
2016-07-14T00:16:43.644Z,16.8
2016-07-14T00:16:53.644Z,16.8
2016-07-14T00:17:03.638Z,16.9
2016-07-14T00:17:13.632Z,16.9
2016-07-14T00:17:23.628Z,16.9
2016-07-14T00:17:33.624Z,16.9
2016-07-14T00:17:43.619Z,16.9
2016-07-14T00:17:53.639Z,16.9
2016-07-14T00:18:03.609Z,16.9
2016-07-14T00:18:13.603Z,16.9
2016-07-14T00:18:23.600Z,16.8
2016-07-14T00:18:33.594Z,16.8
2016-07-14T00:18:43.590Z,16.8
2016-07-14T00:18:53.586Z,16.7
2016-07-14T00:19:03.575Z,16.7
2016-07-14T00:19:13.574Z,16.7
2016-07-14T00:19:23.569Z,16.7
2016-07-14T00:19:33.567Z,16.7
2016-07-14T00:19:43.560Z,16.7
2016-07-14T00:19:53.557Z,16.7
2016-07-14T00:20:03.567Z,16.7
2016-07-14T00:20:13.545Z,16.8
2016-07-14T00:20:23.541Z,16.8
2016-07-14T00:20:33.536Z,16.7
2016-07-14T00:20:43.532Z,16.7
2016-07-14T00:20:53.527Z,16.7
2016-07-14T00:21:03.525Z,16.7
2016-07-14T00:21:13.519Z,16.7
2016-07-14T00:21:23.513Z,16.8
2016-07-14T00:21:33.511Z,16.7
2016-07-14T00:21:43.504Z,16.8
2016-07-14T00:21:53.499Z,16.7
2016-07-14T00:22:03.493Z,16.8
2016-07-14T00:22:13.491Z,16.8
2016-07-14T00:22:23.482Z,16.8
2016-07-14T00:22:33.481Z,16.8
2016-07-14T00:22:43.476Z,16.7
2016-07-14T00:22:53.470Z,16.8
2016-07-14T00:23:03.469Z,16.7
2016-07-14T00:23:13.463Z,16.7
2016-07-14T00:23:23.457Z,16.7
2016-07-14T00:23:33.451Z,16.7
2016-07-14T00:23:43.446Z,16.7
2016-07-14T00:23:53.441Z,16.6
2016-07-14T00:24:03.436Z,16.6
2016-07-14T00:24:13.432Z,16.6
2016-07-14T00:24:23.428Z,16.6
2016-07-14T00:24:33.421Z,16.6
2016-07-14T00:24:43.417Z,16.6
2016-07-14T00:24:53.413Z,16.6
2016-07-14T00:25:03.410Z,16.5
2016-07-14T00:25:14.884Z,16.5
2016-07-14T00:25:23.399Z,16.5
2016-07-14T00:25:33.396Z,16.5
2016-07-14T00:25:43.385Z,16.5
2016-07-14T00:25:53.382Z,16.6
2016-07-14T00:26:03.378Z,16.6
2016-07-14T00:26:13.376Z,16.6
2016-07-14T00:26:23.368Z,16.6
2016-07-14T00:26:33.366Z,16.6
2016-07-14T00:26:43.360Z,16.6
2016-07-14T00:26:53.357Z,16.6
2016-07-14T00:27:03.351Z,16.5
2016-07-14T00:27:13.346Z,16.5
2016-07-14T00:27:23.339Z,16.5
2016-07-14T00:27:33.335Z,16.5
2016-07-14T00:27:43.329Z,16.5
2016-07-14T00:27:53.323Z,16.5
2016-07-14T00:28:03.325Z,16.6
2016-07-14T00:28:13.315Z,16.6
2016-07-14T00:28:23.313Z,16.6
2016-07-14T00:28:33.309Z,16.6
2016-07-14T00:28:43.301Z,16.6
2016-07-14T00:28:53.298Z,16.6
2016-07-14T00:29:03.293Z,16.6
2016-07-14T00:29:13.286Z,16.6
2016-07-14T00:29:23.283Z,16.6
2016-07-14T00:29:33.278Z,16.6
2016-07-14T00:29:43.273Z,16.6
2016-07-14T00:29:53.268Z,16.6
2016-07-14T00:30:03.263Z,16.6
2016-07-14T00:30:13.260Z,16.6
2016-07-14T00:30:23.256Z,16.6
2016-07-14T00:30:33.248Z,16.6
2016-07-14T00:30:43.244Z,16.6
2016-07-14T00:30:53.239Z,16.6
2016-07-14T00:31:03.236Z,16.7
2016-07-14T00:31:13.232Z,16.7
2016-07-14T00:31:23.225Z,16.7
2016-07-14T00:31:33.221Z,16.7
2016-07-14T00:31:43.217Z,16.6
2016-07-14T00:31:53.212Z,16.6
2016-07-14T00:32:03.208Z,16.6
2016-07-14T00:32:13.202Z,16.6
2016-07-14T00:32:23.197Z,16.6
2016-07-14T00:32:33.191Z,16.6
2016-07-14T00:32:43.189Z,16.6
2016-07-14T00:32:53.182Z,16.7
2016-07-14T00:33:03.177Z,16.7
2016-07-14T00:33:13.172Z,16.7
2016-07-14T00:33:23.165Z,16.7
2016-07-14T00:33:33.160Z,16.7
2016-07-14T00:33:43.156Z,16.7
2016-07-14T00:33:53.152Z,16.6
2016-07-14T00:34:03.146Z,16.6
2016-07-14T00:34:13.144Z,16.6
2016-07-14T00:34:23.139Z,16.6
2016-07-14T00:34:33.132Z,16.6
2016-07-14T00:34:43.130Z,16.6
2016-07-14T00:34:53.123Z,16.6
2016-07-14T00:35:03.122Z,16.6
2016-07-14T00:35:13.116Z,16.5
2016-07-14T00:35:23.112Z,16.5
2016-07-14T00:35:33.105Z,16.6
2016-07-14T00:35:43.101Z,16.6
2016-07-14T00:35:53.096Z,16.6
2016-07-14T00:36:03.090Z,16.5
2016-07-14T00:36:13.090Z,16.6
2016-07-14T00:36:23.081Z,16.6
2016-07-14T00:36:33.076Z,16.5
2016-07-14T00:36:43.071Z,16.5
2016-07-14T00:36:53.068Z,16.5
2016-07-14T00:37:03.064Z,16.5
2016-07-14T00:37:13.056Z,16.5
2016-07-14T00:37:23.052Z,16.5
2016-07-14T00:37:33.052Z,16.5
2016-07-14T00:37:43.048Z,16.5
2016-07-14T00:37:53.039Z,16.5
2016-07-14T00:38:03.030Z,16.5
2016-07-14T00:38:13.031Z,16.6
2016-07-14T00:38:23.024Z,16.5
2016-07-14T00:38:33.016Z,16.6
2016-07-14T00:38:43.015Z,16.5
2016-07-14T00:38:53.010Z,16.5
2016-07-14T00:39:03.002Z,16.5
2016-07-14T00:39:13.001Z,16.5
2016-07-14T00:39:22.996Z,16.5
2016-07-14T00:39:32.988Z,16.4
2016-07-14T00:39:42.985Z,16.4
2016-07-14T00:39:52.979Z,16.4
2016-07-14T00:40:02.977Z,16.4
2016-07-14T00:40:12.971Z,16.4
2016-07-14T00:40:22.961Z,16.4
2016-07-14T00:40:32.958Z,16.4
2016-07-14T00:40:42.955Z,16.4
2016-07-14T00:40:52.953Z,16.4
2016-07-14T00:41:02.947Z,16.4
2016-07-14T00:41:12.942Z,16.4
2016-07-14T00:41:22.938Z,16.4
2016-07-14T00:41:32.931Z,16.4
2016-07-14T00:41:42.926Z,16.4
2016-07-14T00:41:52.928Z,16.5
2016-07-14T00:42:02.916Z,16.4
2016-07-14T00:42:12.915Z,16.4
2016-07-14T00:42:22.910Z,16.5
2016-07-14T00:42:32.902Z,16.5
2016-07-14T00:42:42.899Z,16.4
2016-07-14T00:42:52.894Z,16.4
2016-07-14T00:43:02.891Z,16.4
2016-07-14T00:43:12.884Z,16.3
2016-07-14T00:43:22.878Z,16.3
2016-07-14T00:43:32.874Z,16.3
2016-07-14T00:43:42.869Z,16.3
2016-07-14T00:43:52.861Z,16.3
2016-07-14T00:44:02.859Z,16.3
2016-07-14T00:44:13.585Z,16.4
2016-07-14T00:44:22.852Z,16.3
2016-07-14T00:44:32.845Z,16.3
2016-07-14T00:44:42.842Z,16.2
2016-07-14T00:44:52.839Z,16.2
2016-07-14T00:45:02.832Z,16.3
2016-07-14T00:45:12.827Z,16.3
2016-07-14T00:45:22.819Z,16.2
2016-07-14T00:45:32.816Z,16.2
2016-07-14T00:45:42.811Z,16.2
2016-07-14T00:45:52.807Z,16.1
2016-07-14T00:46:02.802Z,16.1
2016-07-14T00:46:12.797Z,16.1
2016-07-14T00:46:22.793Z,16.1
2016-07-14T00:46:32.787Z,16.1
2016-07-14T00:46:42.783Z,16.1
2016-07-14T00:46:52.776Z,16.1
2016-07-14T00:47:02.775Z,16.1
2016-07-14T00:47:12.767Z,16.1
2016-07-14T00:47:22.762Z,16.1
2016-07-14T00:47:32.758Z,16.1
2016-07-14T00:47:42.754Z,16.1
2016-07-14T00:47:52.748Z,16.1
2016-07-14T00:48:02.745Z,16.1
2016-07-14T00:48:12.740Z,16.1
2016-07-14T00:48:22.736Z,16.1
2016-07-14T00:48:32.731Z,16
2016-07-14T00:48:42.723Z,16
2016-07-14T00:48:52.718Z,16
2016-07-14T00:49:02.716Z,16
2016-07-14T00:49:13.439Z,16
2016-07-14T00:49:22.702Z,16
2016-07-14T00:49:32.701Z,16
2016-07-14T00:49:42.697Z,16
2016-07-14T00:49:52.692Z,16
2016-07-14T00:50:02.687Z,16
2016-07-14T00:50:12.681Z,16
2016-07-14T00:50:22.676Z,16
2016-07-14T00:50:32.669Z,16
2016-07-14T00:50:42.665Z,16
2016-07-14T00:50:52.663Z,16
2016-07-14T00:51:02.656Z,16
2016-07-14T00:51:12.656Z,16
2016-07-14T00:51:22.656Z,16
2016-07-14T00:51:32.643Z,16
2016-07-14T00:51:42.639Z,16
2016-07-14T00:51:52.634Z,16
2016-07-14T00:52:02.628Z,16
2016-07-14T00:52:12.621Z,16
2016-07-14T00:52:22.619Z,16
2016-07-14T00:52:32.612Z,16
2016-07-14T00:52:42.609Z,16
2016-07-14T00:52:52.601Z,16
2016-07-14T00:53:02.598Z,16
2016-07-14T00:53:12.593Z,16
2016-07-14T00:53:22.591Z,16
2016-07-14T00:53:32.585Z,15.9
2016-07-14T00:53:42.579Z,15.9
2016-07-14T00:53:52.573Z,15.9
2016-07-14T00:54:02.569Z,15.9
2016-07-14T00:54:12.566Z,15.9
2016-07-14T00:54:22.561Z,15.9
2016-07-14T00:54:32.556Z,15.9
2016-07-14T00:54:42.550Z,15.8
2016-07-14T00:54:52.545Z,15.9
2016-07-14T00:55:02.540Z,15.9
2016-07-14T00:55:12.535Z,15.9
2016-07-14T00:55:22.527Z,15.9
2016-07-14T00:55:32.528Z,15.9
2016-07-14T00:55:42.522Z,15.8
2016-07-14T00:55:52.516Z,15.8
2016-07-14T00:56:02.512Z,15.8
2016-07-14T00:56:12.506Z,15.8
2016-07-14T00:56:22.502Z,15.8
2016-07-14T00:56:32.497Z,15.8
2016-07-14T00:56:42.492Z,15.8
2016-07-14T00:56:52.488Z,15.7
2016-07-14T00:57:02.482Z,15.8
2016-07-14T00:57:12.478Z,15.7
2016-07-14T00:57:22.475Z,15.7
2016-07-14T00:57:32.468Z,15.7
2016-07-14T00:57:42.461Z,15.7
2016-07-14T00:57:52.459Z,15.7
2016-07-14T00:58:02.452Z,15.7
2016-07-14T00:58:12.451Z,15.7
2016-07-14T00:58:22.446Z,15.7
2016-07-14T00:58:32.438Z,15.7
2016-07-14T00:58:42.436Z,15.8
2016-07-14T00:58:52.432Z,15.7
2016-07-14T00:59:02.425Z,15.7
2016-07-14T00:59:12.427Z,15.7
2016-07-14T00:59:22.415Z,15.7
2016-07-14T00:59:32.410Z,15.7
2016-07-14T00:59:42.404Z,15.6
2016-07-14T00:59:52.402Z,15.7
2016-07-14T01:00:02.398Z,15.6
2016-07-14T01:00:12.394Z,15.6
2016-07-14T01:00:22.386Z,15.7
2016-07-14T01:00:32.384Z,15.7
2016-07-14T01:00:42.375Z,15.7
2016-07-14T01:00:52.369Z,15.7
2016-07-14T01:01:02.370Z,15.8
2016-07-14T01:01:12.363Z,15.7
2016-07-14T01:01:22.358Z,15.7
2016-07-14T01:01:32.353Z,15.7
2016-07-14T01:01:43.087Z,15.7
2016-07-14T01:01:52.348Z,15.7
2016-07-14T01:02:02.338Z,15.7
2016-07-14T01:02:12.333Z,15.8
2016-07-14T01:02:22.330Z,15.8
2016-07-14T01:02:32.322Z,15.8
2016-07-14T01:02:42.319Z,15.8
2016-07-14T01:02:52.316Z,15.7
2016-07-14T01:03:02.311Z,15.7
2016-07-14T01:03:12.303Z,15.6
2016-07-14T01:03:22.298Z,15.6
2016-07-14T01:03:32.295Z,15.6
2016-07-14T01:03:42.291Z,15.6
2016-07-14T01:03:52.284Z,15.6
2016-07-14T01:04:02.281Z,15.6
2016-07-14T01:04:12.276Z,15.6
2016-07-14T01:04:22.270Z,15.6
2016-07-14T01:04:32.267Z,15.6
2016-07-14T01:04:42.262Z,15.6
2016-07-14T01:04:52.257Z,15.7
2016-07-14T01:05:02.252Z,15.7
2016-07-14T01:05:12.247Z,15.6
2016-07-14T01:05:22.241Z,15.6
2016-07-14T01:05:32.237Z,15.6
2016-07-14T01:05:42.233Z,15.6
2016-07-14T01:05:52.224Z,15.7
2016-07-14T01:06:02.221Z,15.8
2016-07-14T01:06:12.218Z,15.7
2016-07-14T01:06:22.214Z,15.8
2016-07-14T01:06:32.207Z,15.8
2016-07-14T01:06:42.931Z,15.8
2016-07-14T01:06:52.199Z,15.8
2016-07-14T01:07:02.193Z,15.7
2016-07-14T01:07:12.189Z,15.8
2016-07-14T01:07:22.181Z,15.7
2016-07-14T01:07:32.177Z,15.8
2016-07-14T01:07:42.175Z,15.7
2016-07-14T01:07:52.171Z,15.7
2016-07-14T01:08:02.164Z,15.7
2016-07-14T01:08:12.162Z,15.7
2016-07-14T01:08:22.156Z,15.8
2016-07-14T01:08:32.149Z,15.7
2016-07-14T01:08:42.144Z,15.7
2016-07-14T01:08:52.140Z,15.7
2016-07-14T01:09:02.137Z,15.7
2016-07-14T01:09:12.136Z,15.7
2016-07-14T01:09:22.124Z,15.6
2016-07-14T01:09:32.121Z,15.6
2016-07-14T01:09:42.115Z,15.6
2016-07-14T01:09:52.109Z,15.6
2016-07-14T01:10:02.107Z,15.7
2016-07-14T01:10:12.104Z,15.7
2016-07-14T01:10:22.098Z,15.6
2016-07-14T01:10:32.092Z,15.6
2016-07-14T01:10:42.086Z,15.5
2016-07-14T01:10:52.081Z,15.6
2016-07-14T01:11:02.079Z,15.5
2016-07-14T01:11:12.072Z,15.5
2016-07-14T01:11:22.067Z,15.5
2016-07-14T01:11:32.063Z,15.5
2016-07-14T01:11:42.056Z,15.5
2016-07-14T01:11:52.056Z,15.5
2016-07-14T01:12:02.050Z,15.5
2016-07-14T01:12:12.042Z,15.5
2016-07-14T01:12:22.777Z,15.5
2016-07-14T01:12:32.034Z,15.5
2016-07-14T01:12:42.029Z,15.5
2016-07-14T01:12:52.021Z,15.5
2016-07-14T01:13:02.021Z,15.5
2016-07-14T01:13:12.017Z,15.4
2016-07-14T01:13:22.007Z,15.4
2016-07-14T01:13:32.007Z,15.4
2016-07-14T01:13:41.999Z,15.4
2016-07-14T01:13:51.993Z,15.4
2016-07-14T01:14:01.988Z,15.5
2016-07-14T01:14:11.985Z,15.5
2016-07-14T01:14:21.979Z,15.6
2016-07-14T01:14:31.975Z,15.6
2016-07-14T01:14:41.972Z,15.6
2016-07-14T01:14:51.971Z,15.6
2016-07-14T01:15:01.960Z,15.6
2016-07-14T01:15:11.954Z,15.6
2016-07-14T01:15:21.953Z,15.6
2016-07-14T01:15:31.946Z,15.6
2016-07-14T01:15:41.942Z,15.5
2016-07-14T01:15:51.937Z,15.5
2016-07-14T01:16:01.931Z,15.4
2016-07-14T01:16:11.928Z,15.4
2016-07-14T01:16:21.922Z,15.4
2016-07-14T01:16:31.918Z,15.4
2016-07-14T01:16:41.913Z,15.4
2016-07-14T01:16:51.907Z,15.4
2016-07-14T01:17:01.903Z,15.4
2016-07-14T01:17:11.898Z,15.4
2016-07-14T01:17:21.893Z,15.4
2016-07-14T01:17:31.887Z,15.4
2016-07-14T01:17:41.884Z,15.4
2016-07-14T01:17:51.881Z,15.4
2016-07-14T01:18:01.875Z,15.4
2016-07-14T01:18:11.868Z,15.4
2016-07-14T01:18:21.861Z,15.4
2016-07-14T01:18:31.857Z,15.4
2016-07-14T01:18:41.852Z,15.3
2016-07-14T01:18:51.849Z,15.4
2016-07-14T01:19:01.843Z,15.4
2016-07-14T01:19:11.838Z,15.3
2016-07-14T01:19:21.830Z,15.3
2016-07-14T01:19:31.826Z,15.3
2016-07-14T01:19:41.822Z,15.3
2016-07-14T01:19:51.820Z,15.4
2016-07-14T01:20:01.812Z,15.4
2016-07-14T01:20:11.808Z,15.5
2016-07-14T01:20:21.802Z,15.4
2016-07-14T01:20:31.799Z,15.5
2016-07-14T01:20:41.792Z,15.4
2016-07-14T01:20:51.789Z,15.4
2016-07-14T01:21:01.784Z,15.4
2016-07-14T01:21:11.779Z,15.4
2016-07-14T01:21:21.773Z,15.4
2016-07-14T01:21:31.769Z,15.4
2016-07-14T01:21:41.764Z,15.3
2016-07-14T01:21:51.760Z,15.3
2016-07-14T01:22:01.754Z,15.3
2016-07-14T01:22:11.748Z,15.3
2016-07-14T01:22:21.744Z,15.3
2016-07-14T01:22:31.737Z,15.2
2016-07-14T01:22:42.471Z,15.2
2016-07-14T01:22:51.728Z,15.2
2016-07-14T01:23:01.726Z,15.3
2016-07-14T01:23:11.720Z,15.3
2016-07-14T01:23:21.716Z,15.3
2016-07-14T01:23:31.710Z,15.3
2016-07-14T01:23:41.706Z,15.3
2016-07-14T01:23:51.702Z,15.3
2016-07-14T01:24:01.697Z,15.3
2016-07-14T01:24:11.692Z,15.2
2016-07-14T01:24:21.686Z,15.2
2016-07-14T01:24:31.681Z,15.2
2016-07-14T01:24:41.676Z,15.2
2016-07-14T01:24:51.671Z,15.2
2016-07-14T01:25:01.668Z,15.2
2016-07-14T01:25:11.663Z,15.2
2016-07-14T01:25:21.657Z,15.2
2016-07-14T01:25:31.652Z,15.2
2016-07-14T01:25:41.647Z,15.3
2016-07-14T01:25:51.643Z,15.3
2016-07-14T01:26:01.637Z,15.3
2016-07-14T01:26:11.632Z,15.3
2016-07-14T01:26:21.628Z,15.3
2016-07-14T01:26:31.623Z,15.3
2016-07-14T01:26:41.617Z,15.3
2016-07-14T01:26:51.613Z,15.3
2016-07-14T01:27:01.608Z,15.3
2016-07-14T01:27:11.604Z,15.2
2016-07-14T01:27:21.599Z,15.2
2016-07-14T01:27:32.330Z,15.2
2016-07-14T01:27:41.589Z,15.3
2016-07-14T01:27:51.584Z,15.2
2016-07-14T01:28:01.580Z,15.3
2016-07-14T01:28:11.577Z,15.2
2016-07-14T01:28:21.569Z,15.2
2016-07-14T01:28:31.568Z,15.2
2016-07-14T01:28:41.559Z,15.2
2016-07-14T01:28:51.554Z,15.2
2016-07-14T01:29:01.548Z,15.2
2016-07-14T01:29:11.545Z,15.2
2016-07-14T01:29:21.541Z,15.2
2016-07-14T01:29:31.536Z,15.2
2016-07-14T01:29:41.530Z,15.3
2016-07-14T01:29:51.526Z,15.3
2016-07-14T01:30:01.522Z,15.3
2016-07-14T01:30:11.516Z,15.2
2016-07-14T01:30:21.511Z,15.2
2016-07-14T01:30:31.506Z,15.2
2016-07-14T01:30:41.501Z,15.2
2016-07-14T01:30:51.495Z,15.3
2016-07-14T01:31:01.492Z,15.3
2016-07-14T01:31:11.487Z,15.3
2016-07-14T01:31:21.481Z,15.2
2016-07-14T01:31:31.476Z,15.2
2016-07-14T01:31:41.476Z,15.2
2016-07-14T01:31:52.196Z,15.1
2016-07-14T01:32:01.463Z,15.1
2016-07-14T01:32:11.459Z,15.1
2016-07-14T01:32:21.452Z,15.1
2016-07-14T01:32:31.446Z,15.1
2016-07-14T01:32:41.443Z,15.1
2016-07-14T01:32:51.438Z,15.1
2016-07-14T01:33:01.433Z,15.1
2016-07-14T01:33:11.429Z,15.1
2016-07-14T01:33:21.423Z,15
2016-07-14T01:33:31.424Z,15.1
2016-07-14T01:33:41.414Z,15.1
2016-07-14T01:33:51.409Z,15
2016-07-14T01:34:01.404Z,15
2016-07-14T01:34:11.398Z,15
2016-07-14T01:34:21.393Z,15
2016-07-14T01:34:31.389Z,15
2016-07-14T01:34:41.385Z,15
2016-07-14T01:34:51.380Z,15
2016-07-14T01:35:01.374Z,15
2016-07-14T01:35:11.371Z,15
2016-07-14T01:35:21.364Z,15
2016-07-14T01:35:31.361Z,15
2016-07-14T01:35:41.356Z,15
2016-07-14T01:35:51.349Z,15
2016-07-14T01:36:01.346Z,15
2016-07-14T01:36:11.342Z,15
2016-07-14T01:36:21.335Z,15
2016-07-14T01:36:31.330Z,15
2016-07-14T01:36:41.326Z,15
2016-07-14T01:36:51.322Z,15
2016-07-14T01:37:01.316Z,15
2016-07-14T01:37:11.312Z,15
2016-07-14T01:37:21.307Z,15
2016-07-14T01:37:31.302Z,15
2016-07-14T01:37:41.295Z,15
2016-07-14T01:37:51.291Z,15
2016-07-14T01:38:01.285Z,15
2016-07-14T01:38:11.282Z,15
2016-07-14T01:38:21.277Z,15
2016-07-14T01:38:31.272Z,15.1
2016-07-14T01:38:41.268Z,15
2016-07-14T01:38:51.263Z,15.1
2016-07-14T01:39:01.257Z,15
2016-07-14T01:39:11.254Z,15
2016-07-14T01:39:21.247Z,15
2016-07-14T01:39:31.242Z,15.1
2016-07-14T01:39:41.239Z,15.1
2016-07-14T01:39:51.233Z,15.1
2016-07-14T01:40:01.227Z,15
2016-07-14T01:40:11.221Z,15.1
2016-07-14T01:40:21.218Z,15.1
2016-07-14T01:40:31.215Z,15
2016-07-14T01:40:41.207Z,15
2016-07-14T01:40:51.203Z,15
2016-07-14T01:41:01.198Z,15
2016-07-14T01:41:11.194Z,15.1
2016-07-14T01:41:21.189Z,15.1
2016-07-14T01:41:31.184Z,15.1
2016-07-14T01:41:41.177Z,15.1
2016-07-14T01:41:51.173Z,15.1
2016-07-14T01:42:01.169Z,15.1
2016-07-14T01:42:11.165Z,15.1
2016-07-14T01:42:21.159Z,15.1
2016-07-14T01:42:31.156Z,15.1
2016-07-14T01:42:41.151Z,15.1
2016-07-14T01:42:51.142Z,15.1
2016-07-14T01:43:01.142Z,15.1
2016-07-14T01:43:11.134Z,15.1
2016-07-14T01:43:21.130Z,15.1
2016-07-14T01:43:31.126Z,15.1
2016-07-14T01:43:41.119Z,15.1
2016-07-14T01:43:51.114Z,15.1
2016-07-14T01:44:01.109Z,15.1
2016-07-14T01:44:11.105Z,15.1
2016-07-14T01:44:21.102Z,15.1
2016-07-14T01:44:31.099Z,15.1
2016-07-14T01:44:41.091Z,15.1
2016-07-14T01:44:51.087Z,15.1
2016-07-14T01:45:01.081Z,15.1
2016-07-14T01:45:11.076Z,15
2016-07-14T01:45:21.073Z,15
2016-07-14T01:45:31.067Z,15
2016-07-14T01:45:41.062Z,15.1
2016-07-14T01:45:51.057Z,15.1
2016-07-14T01:46:01.053Z,15.1
2016-07-14T01:46:11.047Z,15.1
2016-07-14T01:46:21.042Z,15.1
2016-07-14T01:46:31.037Z,15.1
2016-07-14T01:46:41.032Z,15.1
2016-07-14T01:46:51.029Z,15.1
2016-07-14T01:47:01.021Z,15.2
2016-07-14T01:47:11.019Z,15.1
2016-07-14T01:47:21.011Z,15.1
2016-07-14T01:47:31.009Z,15.1
2016-07-14T01:47:41.003Z,15.1
2016-07-14T01:47:50.996Z,15
2016-07-14T01:48:00.992Z,15
2016-07-14T01:48:10.990Z,15
2016-07-14T01:48:20.984Z,15
2016-07-14T01:48:30.979Z,15
2016-07-14T01:48:40.971Z,14.9
2016-07-14T01:48:50.968Z,14.9
2016-07-14T01:49:00.965Z,14.9
2016-07-14T01:49:10.960Z,14.9
2016-07-14T01:49:20.957Z,14.9
2016-07-14T01:49:30.950Z,14.9
2016-07-14T01:49:40.947Z,14.9
2016-07-14T01:49:50.952Z,14.9
2016-07-14T01:50:00.936Z,14.9
2016-07-14T01:50:10.931Z,14.9
2016-07-14T01:50:20.925Z,14.9
2016-07-14T01:50:30.918Z,14.9
2016-07-14T01:50:40.915Z,15
2016-07-14T01:50:50.912Z,14.9
2016-07-14T01:51:00.907Z,14.9
2016-07-14T01:51:10.902Z,14.9
2016-07-14T01:51:20.896Z,14.9
2016-07-14T01:51:30.892Z,14.9
2016-07-14T01:51:40.887Z,14.9
2016-07-14T01:51:50.882Z,14.9
2016-07-14T01:52:00.876Z,14.9
2016-07-14T01:52:10.871Z,14.9
2016-07-14T01:52:20.867Z,14.9
2016-07-14T01:52:30.861Z,14.9
2016-07-14T01:52:40.857Z,15
2016-07-14T01:52:50.852Z,15
2016-07-14T01:53:00.848Z,15
2016-07-14T01:53:10.841Z,15.1
2016-07-14T01:53:20.838Z,15
2016-07-14T01:53:30.833Z,14.9
2016-07-14T01:53:40.827Z,14.9
2016-07-14T01:53:50.823Z,14.9
2016-07-14T01:54:00.817Z,14.9
2016-07-14T01:54:10.812Z,14.9
2016-07-14T01:54:20.806Z,14.9
2016-07-14T01:54:31.745Z,14.9
2016-07-14T01:54:40.799Z,14.9
2016-07-14T01:54:50.795Z,14.9
2016-07-14T01:55:00.789Z,14.9
2016-07-14T01:55:10.783Z,14.9
2016-07-14T01:55:20.778Z,14.8
2016-07-14T01:55:30.773Z,14.9
2016-07-14T01:55:40.769Z,14.9
2016-07-14T01:55:50.766Z,14.9
2016-07-14T01:56:00.758Z,14.9
2016-07-14T01:56:10.754Z,14.8
2016-07-14T01:56:20.750Z,14.8
2016-07-14T01:56:30.745Z,14.8
2016-07-14T01:56:40.739Z,14.8
2016-07-14T01:56:50.736Z,14.8
2016-07-14T01:57:00.728Z,14.9
2016-07-14T01:57:10.723Z,14.9
2016-07-14T01:57:21.449Z,14.8
2016-07-14T01:57:30.715Z,14.8
2016-07-14T01:57:40.711Z,14.8
2016-07-14T01:57:50.704Z,14.7
2016-07-14T01:58:00.698Z,14.7
2016-07-14T01:58:10.696Z,14.8
2016-07-14T01:58:20.691Z,14.8
2016-07-14T01:58:30.686Z,14.8
2016-07-14T01:58:40.681Z,14.8
2016-07-14T01:58:50.675Z,14.8
2016-07-14T01:59:00.671Z,14.8
2016-07-14T01:59:10.667Z,14.8
2016-07-14T01:59:20.660Z,14.8
2016-07-14T01:59:30.654Z,14.8
2016-07-14T01:59:40.652Z,14.8
2016-07-14T01:59:50.646Z,14.9
2016-07-14T02:00:00.642Z,14.8
2016-07-14T02:00:10.636Z,14.8
2016-07-14T02:00:20.631Z,14.8
2016-07-14T02:00:30.626Z,14.8
2016-07-14T02:00:40.621Z,14.8
2016-07-14T02:00:50.615Z,14.8
2016-07-14T02:01:00.612Z,14.8
2016-07-14T02:01:10.606Z,14.8
2016-07-14T02:01:20.600Z,14.8
2016-07-14T02:01:30.597Z,14.8
2016-07-14T02:01:40.602Z,14.8
2016-07-14T02:01:50.588Z,14.7
2016-07-14T02:02:00.582Z,14.7
2016-07-14T02:02:10.581Z,14.8
2016-07-14T02:02:20.575Z,14.7
2016-07-14T02:02:30.565Z,14.8
2016-07-14T02:02:40.563Z,14.7
2016-07-14T02:02:50.557Z,14.7
2016-07-14T02:03:00.552Z,14.7
2016-07-14T02:03:10.547Z,14.7
2016-07-14T02:03:20.542Z,14.8
2016-07-14T02:03:30.538Z,14.8
2016-07-14T02:03:40.533Z,14.8
2016-07-14T02:03:50.525Z,14.8
2016-07-14T02:04:00.523Z,14.8
2016-07-14T02:04:10.519Z,14.7
2016-07-14T02:04:20.513Z,14.7
2016-07-14T02:04:30.506Z,14.7
2016-07-14T02:04:40.501Z,14.7
2016-07-14T02:04:50.497Z,14.7
2016-07-14T02:05:00.494Z,14.7
2016-07-14T02:05:10.486Z,14.7
2016-07-14T02:05:20.484Z,14.7
2016-07-14T02:05:30.479Z,14.7
2016-07-14T02:05:40.474Z,14.6
2016-07-14T02:05:50.471Z,14.6
2016-07-14T02:06:00.464Z,14.6
2016-07-14T02:06:10.458Z,14.6
2016-07-14T02:06:20.454Z,14.6
2016-07-14T02:06:30.450Z,14.6
2016-07-14T02:06:40.445Z,14.6
2016-07-14T02:06:50.442Z,14.6
2016-07-14T02:07:00.435Z,14.7
2016-07-14T02:07:10.430Z,14.7
2016-07-14T02:07:20.426Z,14.7
2016-07-14T02:07:30.419Z,14.7
2016-07-14T02:07:40.416Z,14.7
2016-07-14T02:07:50.409Z,14.7
2016-07-14T02:08:00.406Z,14.7
2016-07-14T02:08:10.401Z,14.7
2016-07-14T02:08:20.394Z,14.7
2016-07-14T02:08:30.390Z,14.7
2016-07-14T02:08:40.384Z,14.8
2016-07-14T02:08:50.379Z,14.8
2016-07-14T02:09:00.376Z,14.7
2016-07-14T02:09:10.368Z,14.7
2016-07-14T02:09:20.365Z,14.7
2016-07-14T02:09:30.361Z,14.6
2016-07-14T02:09:40.356Z,14.6
2016-07-14T02:09:50.352Z,14.6
2016-07-14T02:10:00.344Z,14.6
2016-07-14T02:10:10.341Z,14.6
2016-07-14T02:10:20.336Z,14.5
2016-07-14T02:10:30.331Z,14.5
2016-07-14T02:10:40.325Z,14.6
2016-07-14T02:10:50.322Z,14.5
2016-07-14T02:11:00.317Z,14.5
2016-07-14T02:11:10.312Z,14.5
2016-07-14T02:11:20.305Z,14.5
2016-07-14T02:11:30.302Z,14.5
2016-07-14T02:11:40.296Z,14.5
2016-07-14T02:11:50.292Z,14.5
2016-07-14T02:12:00.288Z,14.5
2016-07-14T02:12:10.282Z,14.5
2016-07-14T02:12:20.279Z,14.5
2016-07-14T02:12:30.274Z,14.5
2016-07-14T02:12:40.267Z,14.5
2016-07-14T02:12:50.263Z,14.5
2016-07-14T02:13:00.258Z,14.5
2016-07-14T02:13:10.252Z,14.6
2016-07-14T02:13:20.249Z,14.5
2016-07-14T02:13:30.243Z,14.5
2016-07-14T02:13:40.238Z,14.5
2016-07-14T02:13:50.234Z,14.5
2016-07-14T02:14:00.227Z,14.5
2016-07-14T02:14:10.223Z,14.5
2016-07-14T02:14:20.219Z,14.5
2016-07-14T02:14:30.217Z,14.5
2016-07-14T02:14:40.210Z,14.5